Time;durP1;ratioP1;P1;durP2;ratioP2;P2;SDS_P1;SDS_P2;PMS_P1;PMS_P2;Temp;Humidity;BMP_temperature;BMP_pressure;BME280_temperature;BME280_humidity;BME280_pressure;Samples;Min_cycle;Max_cycle;Signal;HPM_P1;HPM_P2
2022/01/18 00:00:46;;;;;;;;;;;;;;;;;;5180122;27;19923;-62
2022/01/18 00:03:12;;;;;;;;;;;13.80;97.60;;;;;;5180063;27;19975;-59
2022/01/18 00:05:38;;;;;;;;;;;14.10;97.70;;;;;;5180360;27;19919;-59
2022/01/18 00:08:04;;;;;;;;;;;13.80;97.60;;;;;;5180278;27;19930;-60
2022/01/18 00:10:31;;;;;;;;;;;13.80;97.60;;;;;;5179369;27;19922;-59
2022/01/18 00:23:01;;;;;;;;;;;14.10;97.60;;;;;;5179893;27;20028;-65
2022/01/18 00:25:26;;;;;;;;;;;13.90;97.60;;;;;;5179606;27;20614;-65
2022/01/18 00:27:52;;;;;;;;;;;14.00;97.60;;;;;;5170515;27;19930;-66
2022/01/18 00:35:16;;;;;;;;;;;13.70;97.50;;;;;;5158571;27;19923;-65
2022/01/18 00:37:51;;;;;;;;;;;14.00;97.60;;;;;;5158541;27;19977;-65
2022/01/18 00:40:16;;;;;;;;;;;13.70;97.50;;;;;;5158785;27;20017;-65
2022/01/18 00:42:42;;;;;;;;;;;14.10;97.60;;;;;;5158718;27;20391;-66
2022/01/18 00:45:08;;;;;;;;;;;14.10;97.60;;;;;;5169027;27;20059;-65
2022/01/18 00:47:33;;;;;;;;;;;14.10;97.60;;;;;;5160848;27;19923;-64
2022/01/18 00:50:01;;;;;;;;;;;13.80;97.50;;;;;;5179444;27;20386;-65
2022/01/18 00:52:28;;;;;;;;;;;14.00;97.50;;;;;;5179465;27;20260;-65
2022/01/18 00:54:54;;;;;;;;;;;14.00;97.60;;;;;;5178837;27;19922;-65
2022/01/18 00:57:19;;;;;;;;;;;13.80;97.50;;;;;;5179036;27;19930;-65
2022/01/18 00:59:47;;;;;;;;;;;14.00;97.60;;;;;;5178969;27;19925;-62
2022/01/18 01:02:13;;;;;;;;;;;13.70;97.50;;;;;;5178220;27;20333;-63
2022/01/18 01:04:45;;;;;;;;;;;13.90;97.60;;;;;;5178738;27;19954;-65
2022/01/18 01:07:11;;;;;;;;;;;13.70;97.50;;;;;;5180334;27;20286;-62
2022/01/18 01:09:37;;;;;;;;;;;14.00;97.60;;;;;;5178783;27;19971;-64
2022/01/18 01:12:04;;;;;;;;;;;13.80;97.60;;;;;;5178712;27;19922;-65
2022/01/18 01:14:30;;;;;;;;;;;14.10;97.60;;;;;;5178925;27;19970;-63
2022/01/18 01:32:16;;;;;;;;;;;14.00;97.50;;;;;;5157790;27;19923;-63
2022/01/18 01:36:07;;;;;;;;;;;13.80;97.50;;;;;;5163094;27;19944;-65
2022/01/18 01:46:29;;;;;;;;;;;13.70;97.50;;;;;;5178063;27;20390;-65
2022/01/18 01:48:56;;;;;;;;;;;13.70;97.50;;;;;;5159681;27;19923;-63
2022/01/18 01:51:29;;;;;;;;;;;13.90;97.50;;;;;;5177997;27;20379;-65
2022/01/18 01:53:55;;;;;;;;;;;13.90;97.50;;;;;;5177164;27;20045;-65
2022/01/18 01:56:21;;;;;;;;;;;13.80;97.50;;;;;;5178527;27;19929;-66
2022/01/18 01:58:46;;;;;;;;;;;13.90;97.60;;;;;;5178108;27;20006;-65
2022/01/18 02:01:12;;;;;;;;;;;13.80;97.50;;;;;;5177769;27;19923;-64
2022/01/18 02:03:38;;;;;;;;;;;13.80;97.50;;;;;;5177961;27;19923;-65
2022/01/18 02:06:03;;;;;;;;;;;13.80;97.50;;;;;;5177950;27;19927;-65
2022/01/18 02:08:29;;;;;;;;;;;13.80;97.60;;;;;;5177960;27;19927;-63
2022/01/18 02:10:54;;;;;;;;;;;13.70;97.50;;;;;;5176780;27;20371;-65
2022/01/18 02:13:20;;;;;;;;;;;13.70;97.50;;;;;;5177857;27;20295;-65
2022/01/18 02:16:10;;;;;;;;;;;13.80;97.50;;;;;;5176382;27;19934;-65
2022/01/18 02:24:05;;;;;;;;;;;13.90;97.50;;;;;;5092751;28;20413;-65
2022/01/18 02:26:31;;;;;;;;;;;13.90;97.50;;;;;;5087323;28;19931;-65
2022/01/18 02:29:03;;;;;;;;;;;13.90;97.50;;;;;;5084426;28;20397;-59
2022/01/18 02:31:28;;;;;;;;;;;13.80;97.50;;;;;;5069432;28;19924;-65
2022/01/18 02:33:54;;;;;;;;;;;13.80;97.50;;;;;;5092452;28;19947;-62
2022/01/18 02:36:19;;;;;;;;;;;13.90;97.50;;;;;;5093344;28;19930;-65
2022/01/18 02:38:46;;;;;;;;;;;13.70;97.40;;;;;;5092529;28;20038;-65
2022/01/18 02:41:24;;;;;;;;;;;14.00;97.50;;;;;;5093270;28;19924;-65
2022/01/18 02:43:50;;;;;;;;;;;13.80;97.40;;;;;;5084091;28;19931;-65
2022/01/18 02:46:16;;;;;;;;;;;13.80;97.40;;;;;;5072118;28;19932;-63
2022/01/18 02:48:42;;;;;;;;;;;13.80;97.40;;;;;;5072239;28;19931;-64
2022/01/18 02:51:07;;;;;;;;;;;14.10;97.50;;;;;;5072083;28;20016;-64
2022/01/18 02:53:34;;;;;;;;;;;13.80;97.40;;;;;;5071845;28;19987;-66
2022/01/18 02:56:00;;;;;;;;;;;13.70;97.40;;;;;;5055241;28;19924;-65
2022/01/18 02:58:30;;;;;;;;;;;13.90;97.40;;;;;;5071988;28;19934;-64
2022/01/18 03:03:35;;;;;;;;;;;13.80;97.40;;;;;;5176940;27;19966;-64
2022/01/18 03:06:01;;;;;;;;;;;13.90;97.40;;;;;;5176539;27;19929;-64
2022/01/18 03:08:27;;;;;;;;;;;13.60;97.30;;;;;;5177465;27;19923;-65
2022/01/18 03:10:53;;;;;;;;;;;13.80;97.40;;;;;;5176841;27;19922;-64
2022/01/18 03:13:18;;;;;;;;;;;13.70;97.40;;;;;;5176831;27;20261;-65
2022/01/18 03:15:44;;;;;;;;;;;13.80;97.40;;;;;;5177249;27;19930;-65
2022/01/18 03:18:10;;;;;;;;;;;13.80;97.40;;;;;;5156862;27;19930;-65
2022/01/18 03:20:36;;;;;;;;;;;13.80;97.40;;;;;;5176733;27;20001;-65
2022/01/18 03:23:02;;;;;;;;;;;13.70;97.40;;;;;;5176996;27;20359;-65
2022/01/18 03:25:38;;;;;;;;;;;13.90;97.40;;;;;;5176450;27;19927;-65
2022/01/18 03:28:05;;;;;;;;;;;14.00;97.40;;;;;;5156417;27;19919;-65
2022/01/18 03:30:34;;;;;;;;;;;13.80;97.40;;;;;;5155786;27;19923;-65
2022/01/18 03:33:00;;;;;;;;;;;14.00;97.40;;;;;;5155350;27;19919;-65
2022/01/18 03:35:26;;;;;;;;;;;13.80;97.40;;;;;;5156187;27;19927;-65
2022/01/18 03:37:51;;;;;;;;;;;14.00;97.40;;;;;;5155405;27;19930;-65
2022/01/18 03:40:17;;;;;;;;;;;13.90;97.40;;;;;;5155686;27;19923;-65
2022/01/18 03:53:12;;;;;;;;;;;13.90;97.40;;;;;;5155809;27;20287;-63
2022/01/18 03:55:37;;;;;;;;;;;13.90;97.40;;;;;;5155431;27;19923;-65
2022/01/18 04:01:28;;;;;;;;;;;13.90;97.40;;;;;;5155176;27;19976;-65
2022/01/18 04:03:53;;;;;;;;;;;13.70;97.40;;;;;;5155057;27;19919;-64
2022/01/18 04:06:19;;;;;;;;;;;13.90;97.40;;;;;;5155433;27;19978;-65
2022/01/18 04:08:44;;;;;;;;;;;13.80;97.40;;;;;;5156096;27;19965;-64
2022/01/18 04:11:10;;;;;;;;;;;14.10;97.40;;;;;;5155362;27;19923;-65
2022/01/18 04:13:36;;;;;;;;;;;13.80;97.30;;;;;;5155345;27;20085;-67
2022/01/18 04:16:01;;;;;;;;;;;13.90;97.30;;;;;;5155244;27;19923;-65
2022/01/18 04:18:55;;;;;;;;;;;13.80;97.30;;;;;;5154910;27;19923;-64
2022/01/18 04:29:09;;;;;;;;;;;13.90;97.30;;;;;;5154876;27;19923;-65
2022/01/18 04:31:35;;;;;;;;;;;14.20;97.40;;;;;;5154906;27;19930;-65
2022/01/18 04:34:01;;;;;;;;;;;14.00;97.40;;;;;;5155066;27;19923;-66
2022/01/18 04:36:27;;;;;;;;;;;13.90;97.40;;;;;;5155119;27;20022;-65
2022/01/18 04:38:53;;;;;;;;;;;13.70;97.30;;;;;;5156914;27;20384;-65
2022/01/18 04:41:25;;;;;;;;;;;14.00;97.40;;;;;;5158793;27;19929;-65
2022/01/18 04:49:11;;;;;;;;;;;14.10;97.40;;;;;;5179528;27;20030;-66
2022/01/18 04:51:37;;;;;;;;;;;14.20;97.40;;;;;;5179123;27;19925;-65
2022/01/18 04:54:05;;;;;;;;;;;14.10;97.40;;;;;;5179230;27;19923;-60
2022/01/18 04:59:00;;;;;;;;;;;14.30;97.40;;;;;;5178188;27;20017;-64
2022/01/18 05:01:26;;;;;;;;;;;14.10;97.40;;;;;;5178998;27;19962;-65
2022/01/18 05:03:51;;;;;;;;;;;13.90;97.30;;;;;;5178779;27;19967;-63
2022/01/18 05:06:18;;;;;;;;;;;14.00;97.40;;;;;;5179263;27;19929;-65
2022/01/18 05:08:44;;;;;;;;;;;14.00;97.30;;;;;;5179148;27;20291;-64
2022/01/18 05:11:13;;;;;;;;;;;13.80;97.30;;;;;;5179655;27;20021;-64
2022/01/18 05:19:37;;;;;;;;;;;13.90;97.40;;;;;;5178618;27;20026;-65
2022/01/18 05:24:32;;;;;;;;;;;13.90;97.30;;;;;;5178403;27;19923;-65
2022/01/18 05:26:58;;;;;;;;;;;13.90;97.30;;;;;;5141169;27;20022;-64
2022/01/18 05:29:23;;;;;;;;;;;13.80;97.30;;;;;;5157940;27;20017;-66
2022/01/18 05:31:49;;;;;;;;;;;13.60;97.20;;;;;;5157860;27;20366;-66
2022/01/18 05:34:15;;;;;;;;;;;13.90;97.30;;;;;;5157932;27;19923;-65
2022/01/18 05:36:40;;;;;;;;;;;14.00;97.30;;;;;;5138923;27;20009;-65
2022/01/18 05:39:06;;;;;;;;;;;14.10;97.30;;;;;;5158862;27;19923;-65
2022/01/18 05:41:32;;;;;;;;;;;14.00;97.30;;;;;;5168926;27;19923;-65
2022/01/18 05:43:57;;;;;;;;;;;14.10;97.30;;;;;;5157561;27;19979;-64
2022/01/18 05:46:24;;;;;;;;;;;14.10;97.40;;;;;;5157192;27;20372;-65
2022/01/18 05:48:50;;;;;;;;;;;14.10;97.30;;;;;;5157047;27;19975;-61
2022/01/18 05:51:16;;;;;;;;;;;;;;;;;;5157849;27;19923;-64
2022/01/18 05:53:41;;;;;;;;;;;13.90;97.30;;;;;;5156966;27;19923;-64
2022/01/18 05:56:11;;;;;;;;;;;13.90;97.30;;;;;;5156948;27;19923;-64
2022/01/18 05:58:44;;;;;;;;;;;13.80;97.30;;;;;;5156953;27;19923;-65
2022/01/18 06:01:10;;;;;;;;;;;13.80;97.20;;;;;;5156946;27;20059;-65
2022/01/18 06:03:50;;;;;;;;;;;13.90;97.30;;;;;;5157135;27;20014;-65
2022/01/18 06:09:00;;;;;;;;;;;14.10;97.30;;;;;;5157684;27;20283;-65
2022/01/18 06:11:26;;;;;;;;;;;14.10;97.30;;;;;;5157028;27;19927;-64
2022/01/18 06:13:51;;;;;;;;;;;13.80;97.20;;;;;;5156955;27;19930;-65
2022/01/18 06:16:17;;;;;;;;;;;13.90;97.30;;;;;;5137619;27;20303;-63
2022/01/18 06:18:43;;;;;;;;;;;14.00;97.30;;;;;;5156870;27;19930;-65
2022/01/18 06:21:08;;;;;;;;;;;13.90;97.30;;;;;;5156857;27;19992;-65
2022/01/18 06:23:34;;;;;;;;;;;14.00;97.30;;;;;;5156677;27;19930;-65
2022/01/18 06:26:02;;;;;;;;;;;14.20;97.30;;;;;;5156800;27;20023;-65
2022/01/18 06:28:28;;;;;;;;;;;;;;;;;;5156741;27;20344;-65
2022/01/18 06:30:54;;;;;;;;;;;13.80;97.20;;;;;;5156352;27;19927;-65
2022/01/18 06:33:19;;;;;;;;;;;14.00;97.30;;;;;;5156237;27;19923;-64
2022/01/18 06:35:45;;;;;;;;;;;14.20;97.30;;;;;;5157043;27;19974;-65
2022/01/18 06:38:12;;;;;;;;;;;13.90;97.20;;;;;;5156196;27;19923;-65
2022/01/18 06:40:38;;;;;;;;;;;14.00;97.20;;;;;;5156462;27;19931;-66
2022/01/18 06:43:04;;;;;;;;;;;13.90;97.20;;;;;;5175018;27;19922;-65
2022/01/18 06:45:30;;;;;;;;;;;14.10;97.20;;;;;;5176924;27;19923;-65
2022/01/18 06:47:55;;;;;;;;;;;14.00;97.20;;;;;;5176907;27;19933;-63
2022/01/18 06:50:21;;;;;;;;;;;14.10;97.20;;;;;;5177133;27;19922;-65
2022/01/18 06:52:46;;;;;;;;;;;14.20;97.20;;;;;;5176981;27;19923;-59
2022/01/18 06:55:12;;;;;;;;;;;13.80;97.10;;;;;;5176693;27;19967;-59
2022/01/18 06:57:38;;;;;;;;;;;14.00;97.20;;;;;;5176716;27;19930;-59
2022/01/18 07:00:04;;;;;;;;;;;14.10;97.20;;;;;;5176100;27;19922;-65
2022/01/18 07:02:30;;;;;;;;;;;14.00;97.20;;;;;;5176492;27;20013;-65
2022/01/18 07:04:56;;;;;;;;;;;14.00;97.20;;;;;;5176605;27;19970;-59
2022/01/18 07:07:21;;;;;;;;;;;14.00;97.20;;;;;;5176961;27;19922;-65
2022/01/18 07:09:47;;;;;;;;;;;13.90;97.20;;;;;;5176554;27;19922;-65
2022/01/18 07:12:13;;;;;;;;;;;14.00;97.20;;;;;;5176881;27;20014;-65
2022/01/18 07:14:39;;;;;;;;;;;14.00;97.20;;;;;;5157908;27;20281;-60
2022/01/18 07:17:05;;;;;;;;;;;13.90;97.10;;;;;;5175673;27;19970;-65
2022/01/18 07:19:32;;;;;;;;;;;14.00;97.20;;;;;;5176786;27;20375;-58
2022/01/18 07:21:58;;;;;;;;;;;14.10;97.20;;;;;;5176409;27;20393;-59
2022/01/18 07:27:22;;;;;;;;;;;13.90;97.10;;;;;;5091962;28;19924;-65
2022/01/18 07:29:47;;;;;;;;;;;14.00;97.20;;;;;;5091745;28;20301;-65
2022/01/18 07:32:13;;;;;;;;;;;14.00;97.10;;;;;;5095309;28;19930;-65
2022/01/18 07:34:46;;;;;;;;;;;13.90;97.10;;;;;;5112092;28;19965;-66
2022/01/18 07:37:12;;;;;;;;;;;13.80;97.10;;;;;;5112252;28;20331;-65
2022/01/18 07:39:37;;;;;;;;;;;13.90;97.10;;;;;;5112193;28;20027;-65
2022/01/18 07:42:03;;;;;;;;;;;14.00;97.10;;;;;;5112108;28;20342;-63
2022/01/18 07:44:30;;;;;;;;;;;14.30;97.20;;;;;;5112244;28;19961;-59
2022/01/18 07:46:55;;;;;;;;;;;13.90;97.10;;;;;;5112059;28;19927;-64
2022/01/18 07:49:21;;;;;;;;;;;14.00;97.10;;;;;;5111868;28;19930;-65
2022/01/18 07:51:46;;;;;;;;;;;13.90;97.10;;;;;;5112019;28;19924;-59
2022/01/18 07:54:12;;;;;;;;;;;13.80;97.00;;;;;;5111793;28;19924;-58
2022/01/18 07:56:41;;;;;;;;;;;13.90;97.10;;;;;;5112103;28;19930;-64
2022/01/18 07:59:07;;;;;;;;;;;13.90;97.00;;;;;;5111970;28;19924;-63
2022/01/18 08:01:32;;;;;;;;;;;13.90;97.10;;;;;;5111912;28;20084;-65
2022/01/18 08:03:58;;;;;;;;;;;13.80;97.10;;;;;;5152443;27;19923;-64
2022/01/18 08:06:24;;;;;;;;;;;13.90;97.10;;;;;;5156016;27;19923;-59
2022/01/18 08:08:49;;;;;;;;;;;14.00;97.10;;;;;;5136439;27;19950;-65
2022/01/18 08:11:15;;;;;;;;;;;13.60;97.00;;;;;;5155441;27;20070;-66
2022/01/18 08:13:44;;;;;;;;;;;14.10;97.10;;;;;;5157026;27;19930;-65
2022/01/18 08:18:56;;;;;;;;;;;13.90;97.00;;;;;;5055017;28;20301;-62
2022/01/18 08:21:22;;;;;;;;;;;13.90;97.00;;;;;;5038470;28;20015;-66
2022/01/18 08:23:48;;;;;;;;;;;;;;;;;;5062764;28;19975;-65
2022/01/18 08:26:13;;;;;;;;;;;13.90;97.00;;;;;;5074811;28;19925;-65
2022/01/18 08:28:39;;;;;;;;;;;13.70;97.00;;;;;;5074766;28;19986;-66
2022/01/18 08:31:05;;;;;;;;;;;14.00;97.00;;;;;;5074889;28;20275;-65
2022/01/18 08:33:34;;;;;;;;;;;13.70;97.00;;;;;;5074630;28;19924;-65
2022/01/18 08:36:00;;;;;;;;;;;14.00;97.00;;;;;;5074492;28;19963;-65
2022/01/18 08:38:26;;;;;;;;;;;13.80;97.00;;;;;;5074578;28;19936;-61
2022/01/18 08:40:52;;;;;;;;;;;14.00;97.00;;;;;;5073814;28;19974;-65
2022/01/18 08:43:17;;;;;;;;;;;13.80;96.90;;;;;;5074571;28;20048;-65
2022/01/18 08:45:43;;;;;;;;;;;14.10;97.00;;;;;;5074432;28;19920;-65
2022/01/18 08:48:09;;;;;;;;;;;14.20;97.00;;;;;;5061533;28;19928;-61
2022/01/18 08:50:34;;;;;;;;;;;14.00;97.00;;;;;;5074611;28;19925;-59
2022/01/18 08:53:00;;;;;;;;;;;14.00;97.00;;;;;;5074221;28;19921;-65
2022/01/18 08:55:25;;;;;;;;;;;14.20;97.00;;;;;;5096552;27;19927;-65
2022/01/18 08:57:52;;;;;;;;;;;14.00;96.90;;;;;;5159068;27;19967;-65
2022/01/18 09:00:17;;;;;;;;;;;14.00;96.90;;;;;;5158451;27;19923;-65
2022/01/18 09:02:43;;;;;;;;;;;13.80;96.90;;;;;;5158086;27;20337;-65
2022/01/18 09:05:09;;;;;;;;;;;14.40;97.10;;;;;;5158046;27;19923;-65
2022/01/18 09:07:37;;;;;;;;;;;13.90;96.90;;;;;;5158340;27;19930;-64
2022/01/18 09:10:06;;;;;;;;;;;14.00;96.90;;;;;;5158351;27;19923;-65
2022/01/18 09:12:32;;;;;;;;;;;14.00;96.90;;;;;;5158226;27;19923;-65
2022/01/18 09:15:00;;;;;;;;;;;14.20;96.90;;;;;;5158742;27;19930;-60
2022/01/18 09:17:28;;;;;;;;;;;13.80;96.80;;;;;;5157860;27;19927;-60
2022/01/18 09:19:54;;;;;;;;;;;14.00;96.80;;;;;;5158135;27;19923;-65
2022/01/18 09:22:20;;;;;;;;;;;14.30;96.90;;;;;;5158074;27;19919;-65
2022/01/18 09:24:45;;;;;;;;;;;14.10;96.90;;;;;;5157055;27;20332;-64
2022/01/18 09:27:11;;;;;;;;;;;13.90;96.80;;;;;;5157978;27;20009;-65
2022/01/18 09:29:39;;;;;;;;;;;14.10;96.80;;;;;;5157599;27;20333;-65
2022/01/18 09:32:05;;;;;;;;;;;14.00;96.80;;;;;;5168373;27;19926;-65
2022/01/18 09:34:31;;;;;;;;;;;13.90;96.80;;;;;;5178260;27;20343;-65
2022/01/18 09:36:57;;;;;;;;;;;14.30;96.90;;;;;;5159734;27;19923;-59
2022/01/18 09:39:25;;;;;;;;;;;14.20;96.90;;;;;;5178167;27;19958;-62
2022/01/18 09:41:51;;;;;;;;;;;;;;;;;;5179167;27;20371;-62
2022/01/18 09:44:17;;;;;;;;;;;14.20;96.90;;;;;;5178494;27;20299;-65
2022/01/18 09:46:43;;;;;;;;;;;14.00;96.80;;;;;;5178473;27;19923;-65
2022/01/18 09:49:09;;;;;;;;;;;14.20;96.80;;;;;;5177506;27;20329;-65
2022/01/18 09:51:34;;;;;;;;;;;14.00;96.80;;;;;;5178357;27;20521;-65
2022/01/18 09:54:00;;;;;;;;;;;14.00;96.70;;;;;;5178180;27;20260;-64
2022/01/18 09:56:27;;;;;;;;;;;14.30;96.80;;;;;;5178154;27;19966;-64
2022/01/18 09:58:53;;;;;;;;;;;14.30;96.80;;;;;;5177886;27;19922;-65
2022/01/18 10:01:18;;;;;;;;;;;14.10;96.70;;;;;;5178126;27;19930;-65
2022/01/18 10:03:44;;;;;;;;;;;14.20;96.70;;;;;;5178072;27;20021;-65
2022/01/18 10:06:10;;;;;;;;;;;14.40;96.80;;;;;;5177172;27;19922;-64
2022/01/18 10:08:39;;;;;;;;;;;14.30;96.80;;;;;;5177962;27;19992;-61
2022/01/18 10:11:14;;;;;;;;;;;14.20;96.70;;;;;;5177983;27;19926;-63
2022/01/18 10:13:41;;;;;;;;;;;14.10;96.70;;;;;;5177853;27;19975;-65
2022/01/18 10:16:06;;;;;;;;;;;14.30;96.70;;;;;;5177774;27;19923;-61
2022/01/18 10:18:34;;;;;;;;;;;14.30;96.70;;;;;;5177255;27;19945;-65
2022/01/18 10:21:00;;;;;;;;;;;14.20;96.70;;;;;;5177749;27;19930;-65
2022/01/18 10:23:26;;;;;;;;;;;14.40;96.70;;;;;;5163474;27;19923;-59
2022/01/18 10:25:51;;;;;;;;;;;14.30;96.60;;;;;;5156749;27;20080;-65
2022/01/18 10:28:27;;;;;;;;;;;14.50;96.70;;;;;;5156453;27;20036;-60
2022/01/18 10:30:54;;;;;;;;;;;14.40;96.60;;;;;;5156642;27;19923;-63
2022/01/18 10:33:26;;;;;;;;;;;14.60;96.70;;;;;;5156579;27;20292;-65
2022/01/18 10:36:04;;;;;;;;;;;14.50;96.70;;;;;;5155347;27;19930;-65
2022/01/18 10:38:30;;;;;;;;;;;14.50;96.60;;;;;;5156567;27;20257;-65
2022/01/18 10:40:56;;;;;;;;;;;14.50;96.60;;;;;;5173989;27;19925;-62
2022/01/18 10:43:30;;;;;;;;;;;14.60;96.60;;;;;;5177348;27;19923;-59
2022/01/18 10:46:11;;;;;;;;;;;14.40;96.60;;;;;;5177258;27;19929;-64
2022/01/18 10:48:47;;;;;;;;;;;14.50;96.60;;;;;;5176978;27;19967;-66
2022/01/18 10:51:25;;;;;;;;;;;14.50;96.60;;;;;;5177171;27;19927;-65
2022/01/18 10:54:01;;;;;;;;;;;14.60;96.60;;;;;;5176697;27;20383;-65
2022/01/18 10:56:36;;;;;;;;;;;14.30;96.50;;;;;;5176115;27;20062;-65
2022/01/18 10:59:02;;;;;;;;;;;14.50;96.50;;;;;;5177084;27;19930;-66
2022/01/18 11:01:28;;;;;;;;;;;14.60;96.60;;;;;;5176986;27;19922;-65
2022/01/18 11:04:13;;;;;;;;;;;14.30;96.50;;;;;;5176655;27;19922;-63
2022/01/18 11:06:39;;;;;;;;;;;14.30;96.50;;;;;;5176986;27;19922;-65
2022/01/18 11:09:09;;;;;;;;;;;14.50;96.50;;;;;;5176955;27;19926;-63
2022/01/18 11:11:44;;;;;;;;;;;14.20;96.40;;;;;;5176858;27;19927;-64
2022/01/18 11:14:12;;;;;;;;;;;14.40;96.50;;;;;;5176253;27;19934;-60
2022/01/18 11:16:41;;;;;;;;;;;14.20;96.40;;;;;;5176323;27;20452;-65
2022/01/18 11:19:08;;;;;;;;;;;14.70;96.50;;;;;;5158800;27;19923;-65
2022/01/18 11:21:34;;;;;;;;;;;14.70;96.50;;;;;;5176720;27;19962;-65
2022/01/18 11:24:00;;;;;;;;;;;14.60;96.50;;;;;;5138724;27;19929;-65
2022/01/18 11:26:27;;;;;;;;;;;14.70;96.50;;;;;;5137776;27;19927;-65
2022/01/18 11:28:56;;;;;;;;;;;14.70;96.40;;;;;;5137263;27;19958;-66
2022/01/18 11:31:22;;;;;;;;;;;14.60;96.40;;;;;;5138041;27;20014;-66
2022/01/18 11:33:59;;;;;;;;;;;14.40;96.40;;;;;;5155390;27;19923;-65
2022/01/18 11:36:25;;;;;;;;;;;14.70;96.50;;;;;;5156001;27;19975;-65
2022/01/18 11:38:52;;;;;;;;;;;14.60;96.40;;;;;;5155388;27;19923;-64
2022/01/18 11:41:21;;;;;;;;;;;14.70;96.40;;;;;;5137023;27;19923;-65
2022/01/18 11:43:47;;;;;;;;;;;14.50;96.40;;;;;;5155345;27;19923;-59
2022/01/18 11:46:22;;;;;;;;;;;14.70;96.40;;;;;;5155384;27;19923;-66
2022/01/18 11:48:48;;;;;;;;;;;14.80;96.40;;;;;;5169074;27;19982;-66
2022/01/18 11:51:18;;;;;;;;;;;;;;;;;;5145205;27;20040;-67
2022/01/18 11:53:54;;;;;;;;;;;14.70;96.40;;;;;;5159676;27;19931;-66
2022/01/18 11:56:32;;;;;;;;;;;14.70;96.40;;;;;;5159927;27;20283;-64
2022/01/18 11:59:10;;;;;;;;;;;14.80;96.40;;;;;;5159423;27;19937;-58
2022/01/18 12:01:45;;;;;;;;;;;14.90;96.40;;;;;;5159615;27;19923;-60
2022/01/18 12:04:10;;;;;;;;;;;14.80;96.30;;;;;;5159956;27;19945;-61
2022/01/18 12:06:46;;;;;;;;;;;14.60;96.30;;;;;;5159521;27;19927;-62
2022/01/18 12:09:34;;;;;;;;;;;14.60;96.30;;;;;;5159519;27;19923;-60
2022/01/18 12:12:00;;;;;;;;;;;14.50;96.30;;;;;;5145402;27;20027;-59
2022/01/18 12:14:32;;;;;;;;;;;14.50;96.30;;;;;;5159282;27;19927;-65
2022/01/18 12:17:11;;;;;;;;;;;14.60;96.30;;;;;;5159153;27;20300;-66
2022/01/18 12:19:44;;;;;;;;;;;14.50;96.30;;;;;;5158941;27;19998;-65
2022/01/18 12:22:13;;;;;;;;;;;14.60;96.30;;;;;;5159677;27;20266;-62
2022/01/18 12:24:45;;;;;;;;;;;14.80;96.30;;;;;;5158646;27;20407;-65
2022/01/18 12:27:27;;;;;;;;;;;14.60;96.30;;;;;;5159136;27;19929;-66
2022/01/18 12:30:15;;;;;;;;;;;14.70;96.30;;;;;;5158751;27;19930;-65
2022/01/18 12:32:56;;;;;;;;;;;14.70;96.30;;;;;;5158607;27;20361;-65
2022/01/18 12:35:23;;;;;;;;;;;14.70;96.30;;;;;;5158924;27;20289;-65
2022/01/18 12:37:49;;;;;;;;;;;15.00;96.40;;;;;;5158737;27;20013;-66
2022/01/18 12:40:22;;;;;;;;;;;14.80;96.30;;;;;;5179300;27;19927;-66
2022/01/18 12:45:25;;;;;;;;;;;14.80;96.30;;;;;;5179672;27;19926;-64
2022/01/18 12:47:55;;;;;;;;;;;14.40;96.20;;;;;;5179619;27;20432;-65
2022/01/18 12:50:23;;;;;;;;;;;14.50;96.30;;;;;;5160986;27;19922;-65
2022/01/18 12:52:56;;;;;;;;;;;14.60;96.20;;;;;;5160689;27;20431;-65
2022/01/18 12:55:42;;;;;;;;;;;14.60;96.20;;;;;;5178259;27;19922;-65
2022/01/18 12:58:07;;;;;;;;;;;14.50;96.20;;;;;;5178753;27;20373;-65
2022/01/18 13:00:56;;;;;;;;;;;14.70;96.30;;;;;;5178565;27;19929;-65
2022/01/18 13:03:23;;;;;;;;;;;14.60;96.30;;;;;;5074180;28;20007;-65
2022/01/18 13:05:50;;;;;;;;;;;14.70;96.30;;;;;;5074367;28;19996;-65
2022/01/18 13:08:16;;;;;;;;;;;14.50;96.20;;;;;;5074238;28;20302;-60
2022/01/18 13:10:46;;;;;;;;;;;14.60;96.20;;;;;;5074087;28;20289;-65
2022/01/18 13:13:15;;;;;;;;;;;;;;;;;;5073774;28;19924;-66
2022/01/18 13:15:52;;;;;;;;;;;14.50;96.20;;;;;;5074110;28;19924;-63
2022/01/18 13:26:38;;;;;;;;;;;14.50;96.20;;;;;;5073603;28;19928;-63
2022/01/18 13:29:20;;;;;;;;;;;14.50;96.20;;;;;;5073505;28;19986;-66
2022/01/18 13:31:48;;;;;;;;;;;14.60;96.20;;;;;;5073540;28;19920;-65
2022/01/18 13:34:15;;;;;;;;;;;14.60;96.30;;;;;;5073585;28;19924;-65
2022/01/18 13:36:55;;;;;;;;;;;14.80;96.30;;;;;;5056861;28;19931;-61
2022/01/18 13:39:21;;;;;;;;;;;14.70;96.30;;;;;;5080625;27;20020;-65
2022/01/18 13:41:47;;;;;;;;;;;14.60;96.30;;;;;;5157680;27;19923;-65
2022/01/18 13:44:13;;;;;;;;;;;14.40;96.30;;;;;;5157319;27;20444;-66
2022/01/18 13:46:38;;;;;;;;;;;14.60;96.30;;;;;;5158167;27;19965;-59
2022/01/18 13:49:07;;;;;;;;;;;14.40;96.30;;;;;;5157547;27;20005;-65
2022/01/18 13:51:33;;;;;;;;;;;14.50;96.30;;;;;;5157490;27;19923;-65
2022/01/18 13:53:59;;;;;;;;;;;14.60;96.30;;;;;;5157226;27;19923;-65
2022/01/18 13:56:26;;;;;;;;;;;14.50;96.30;;;;;;5138553;27;19927;-65
2022/01/18 13:59:00;;;;;;;;;;;14.40;96.20;;;;;;5156986;27;19923;-65
2022/01/18 14:01:28;;;;;;;;;;;14.20;96.20;;;;;;5157240;27;19927;-65
2022/01/18 14:03:53;;;;;;;;;;;14.50;96.20;;;;;;5157715;27;19923;-66
2022/01/18 14:06:19;;;;;;;;;;;14.40;96.20;;;;;;5157142;27;19923;-66
2022/01/18 14:08:45;;;;;;;;;;;;;;;;;;5157676;27;19927;-65
2022/01/18 14:11:12;;;;;;;;;;;14.40;96.20;;;;;;5157037;27;19930;-67
2022/01/18 14:13:38;;;;;;;;;;;14.60;96.30;;;;;;5138174;27;19966;-65
2022/01/18 14:16:19;;;;;;;;;;;14.40;96.30;;;;;;5156975;27;19992;-65
2022/01/18 14:18:54;;;;;;;;;;;14.40;96.20;;;;;;5156503;27;20380;-65
2022/01/18 14:21:23;;;;;;;;;;;14.40;96.20;;;;;;5157267;27;19968;-65
2022/01/18 14:23:48;;;;;;;;;;;14.50;96.30;;;;;;5156729;27;20334;-65
2022/01/18 14:26:18;;;;;;;;;;;14.20;96.20;;;;;;5138298;27;19975;-65
2022/01/18 14:28:44;;;;;;;;;;;14.40;96.30;;;;;;5156430;27;20037;-65
2022/01/18 14:31:09;;;;;;;;;;;14.50;96.40;;;;;;5156366;27;20003;-65
2022/01/18 14:33:35;;;;;;;;;;;14.30;96.30;;;;;;5156563;27;19930;-64
2022/01/18 14:36:01;;;;;;;;;;;14.60;96.40;;;;;;5156266;27;19923;-65
2022/01/18 14:38:27;;;;;;;;;;;14.50;96.30;;;;;;5169815;27;19922;-65
2022/01/18 14:40:54;;;;;;;;;;;14.50;96.30;;;;;;5177414;27;20026;-65
2022/01/18 14:43:31;;;;;;;;;;;14.40;96.30;;;;;;5177403;27;19922;-65
2022/01/18 14:48:23;;;;;;;;;;;14.60;96.40;;;;;;5177318;27;19927;-66
2022/01/18 14:50:49;;;;;;;;;;;14.40;96.30;;;;;;5163383;27;19927;-65
2022/01/18 14:53:17;;;;;;;;;;;14.40;96.40;;;;;;5177581;27;19933;-63
2022/01/18 14:55:43;;;;;;;;;;;14.30;96.30;;;;;;5160380;27;19974;-65
2022/01/18 14:58:09;;;;;;;;;;;14.30;96.40;;;;;;5156203;27;19958;-65
2022/01/18 15:00:34;;;;;;;;;;;14.30;96.30;;;;;;5156231;27;20391;-65
2022/01/18 15:03:00;;;;;;;;;;;14.40;96.40;;;;;;5156074;27;19957;-65
2022/01/18 15:05:27;;;;;;;;;;;14.40;96.40;;;;;;5155824;27;20287;-65
2022/01/18 15:07:53;;;;;;;;;;;14.40;96.40;;;;;;5156113;27;19923;-65
2022/01/18 15:10:19;;;;;;;;;;;14.40;96.40;;;;;;5155722;27;19946;-66
2022/01/18 15:12:45;;;;;;;;;;;14.40;96.40;;;;;;5156619;27;19931;-63
2022/01/18 15:15:11;;;;;;;;;;;14.30;96.40;;;;;;5137108;27;20027;-64
2022/01/18 15:17:37;;;;;;;;;;;14.30;96.40;;;;;;5155556;27;19923;-65
2022/01/18 15:20:04;;;;;;;;;;;14.20;96.40;;;;;;5155552;27;19923;-65
2022/01/18 15:22:30;;;;;;;;;;;14.00;96.30;;;;;;5155277;27;20031;-66
2022/01/18 15:24:56;;;;;;;;;;;14.30;96.40;;;;;;5155818;27;20394;-61
2022/01/18 15:27:22;;;;;;;;;;;14.30;96.40;;;;;;5155508;27;19923;-65
2022/01/18 15:29:48;;;;;;;;;;;14.40;96.50;;;;;;5156280;27;20276;-65
2022/01/18 15:32:14;;;;;;;;;;;14.30;96.40;;;;;;5155799;27;19926;-66
2022/01/18 15:34:40;;;;;;;;;;;14.20;96.50;;;;;;5155635;27;19970;-60
2022/01/18 15:37:05;;;;;;;;;;;14.10;96.40;;;;;;5156321;27;20411;-59
2022/01/18 15:39:32;;;;;;;;;;;14.40;96.50;;;;;;5155708;27;19919;-65
2022/01/18 15:41:58;;;;;;;;;;;14.40;96.50;;;;;;5155401;27;19948;-65
2022/01/18 15:44:23;;;;;;;;;;;14.20;96.50;;;;;;5155693;27;19919;-66
2022/01/18 15:46:49;;;;;;;;;;;14.20;96.50;;;;;;5155876;27;19927;-65
2022/01/18 15:49:15;;;;;;;;;;;14.10;96.40;;;;;;5136941;27;19923;-64
2022/01/18 15:51:41;;;;;;;;;;;;;;;;;;5155601;27;19926;-62
2022/01/18 15:54:07;;;;;;;;;;;13.90;96.40;;;;;;5155126;27;20051;-58
2022/01/18 15:56:34;;;;;;;;;;;13.90;96.40;;;;;;5156030;27;20006;-66
2022/01/18 15:58:59;;;;;;;;;;;13.90;96.40;;;;;;5155560;27;19923;-65
2022/01/18 16:01:25;;;;;;;;;;;14.10;96.50;;;;;;5155550;27;20287;-66
2022/01/18 16:03:53;;;;;;;;;;;13.80;96.40;;;;;;5156041;27;19999;-63
2022/01/18 16:06:19;;;;;;;;;;;13.80;96.50;;;;;;5155196;27;20372;-65
2022/01/18 16:08:45;;;;;;;;;;;14.30;96.60;;;;;;5155148;27;19927;-65
2022/01/18 16:11:14;;;;;;;;;;;14.00;96.50;;;;;;5155427;27;19930;-65